Airfield :
LOGIN :

Register | Disclaimer

   EN    FR    IT 

 










Legend :    VFR   Marginal VFR   IFR   Intensive IFR   Very Intensive IFR
Visi :
Ceiling :
>= 8 km
>= 3000ft
5 to 8 km
1000 to 3000 ft
1500m to 5 km
500 to 1000 ft
800 to 1500m
200 to 500 ft
< 800m
< 200 ft
Symbols :   Thunderstorms  Fog  Heavy snow  Heavy precipitations  Wind > 20 kt
SIGMETs :     Misc.  Thunderstorms  Icing  Turbulence  Mountain Waves  Volcanic Ashes






- Airport Elevation : 580 ft


LFOA - Avord

CURRENT METAR :
  • 141830Z AUTO 10004KT 9999 SCT034 BKN048 OVC140 05/04 Q0998 TEMPO 4000 SHRA BKN025TCU

EXPIRED METARs :
  • 141800Z AUTO 11006KT 9999 FEW038 OVC160 05/04 Q0998 TEMPO 4000 SHRA BKN025TCU
  • 141730Z AUTO 10004KT 9999 FEW036 SCT052 OVC170 05/04 Q0997 TEMPO 4000 SHRA BKN025TCU
  • 141700Z AUTO 10003KT 9999 FEW033 SCT041 OVC170 05/04 Q0997 TEMPO 4000 SHRA BKN025TCU
  • 141630Z AUTO 12003KT 090V160 9999 FEW040 SCT110 OVC170 05/04 Q0997 TEMPO 4000 SHRA BKN025TCU
  • 141600Z AUTO 12005KT 9999 NCD 06/04 Q0997 TEMPO 2500 SHRAGS BKN010 BKN020CB

TAF TAF LFOA
Valid from the 14 at 15:00 until the 15 at 15:00 UTC


141400Z 1415/1515 14006KT 9999 SCT030
TEMPO 1415/1421 4000 SHRA BKN025TCU
PROB30
TEMPO 1415/1418 2500 SHRAGS BKN010 BKN020CB
TEMPO 1421/1502 VRB02KT 3000 BR BKN005 BKN010
PROB40
TEMPO 1423/1502 0600 FG VV///
TEMPO 1502/1511 4000 RA BKN010
PROB40
TEMPO 1506/1510 2000 RASN BKN007
BECMG 1511/1513 22005KT SCT020 BKN030TCU
PROB40
TEMPO 1513/1515 3000 SHRA



MET'MAP, your aeronautical weather chart ! - Copyright ORBIFLY December 2007 - Disclaimer

ORBIFLY MET'MAP TEAM :

Programming & Development : Alexandra Zaïnal
Concept & Development : Baudouin d'Aumeries
Co-Development & Prog : Marc-Olivier Méhu
Technical & hardware support : Manuel Goepfert

Contact : metmap@orbifly.com




SOURCES & CREDITS :

   NOAA